Sylvan Lake, Canada
Current Conditions -  °F | °C
As of 6:28 PM on Wednesday 26 Nov 2014 (Local Time) from CYQF Reporting Station
Haze Haze  
Wind Chill: 18°   Ceiling: 6500
Heat Index: 25°   Visibility: 6mi
Dew Point: 23°   Wind: 6mph
Humidity: 93%   Direction: 130°SE
Pressure: 30.05"   Gusts: NA
Location:  52.31°N, 114.09°W
Report Text: CYQF 270128Z 13005KT 6SM BR SCT009 OVC065 M04/M05 A3005 RMK ST4SC4 SLP227
Loading
Personal Weather Stations






























Interactive Weather Map New forecast layout! Learn more

10-Day Weather Forecast

Advertisements
Track Severe Weather on mobile